Time;durP1;ratioP1;P1;durP2;ratioP2;P2;SDS_P1;SDS_P2;PMS_P1;PMS_P2;Temp;Humidity;BMP_temperature;BMP_pressure;BME280_temperature;BME280_humidity;BME280_pressure;Samples;Min_cycle;Max_cycle;Signal;HPM_P1;HPM_P2
2022/12/25 00:01:52;;;;;;;34.03;11.37;;;8.20;99.90;;;;;;5093322;28;20436;-75
2022/12/25 00:04:18;;;;;;;37.97;12.00;;;8.30;99.90;;;;;;5092238;28;20376;-76
2022/12/25 00:06:44;;;;;;;38.17;12.27;;;8.30;99.90;;;;;;5095069;28;20941;-76
2022/12/25 00:09:10;;;;;;;31.52;11.88;;;8.40;99.90;;;;;;5096151;28;20870;-75
2022/12/25 00:11:35;;;;;;;32.40;12.20;;;8.50;99.90;;;;;;5094114;28;20435;-77
2022/12/25 00:14:01;;;;;;;30.92;11.13;;;8.60;99.90;;;;;;5094015;28;20378;-76
2022/12/25 00:16:27;;;;;;;31.83;10.43;;;8.70;99.90;;;;;;5095248;28;20388;-77
2022/12/25 00:18:53;;;;;;;37.00;11.50;;;8.70;99.90;;;;;;5094087;28;20465;-76
2022/12/25 00:21:20;;;;;;;26.42;11.50;;;8.90;99.90;;;;;;5093965;28;20385;-75
2022/12/25 00:23:46;;;;;;;26.48;10.52;;;8.90;99.90;;;;;;5095013;28;20664;-77
2022/12/25 00:26:15;;;;;;;32.40;10.80;;;8.90;99.90;;;;;;5093867;28;20402;-77
2022/12/25 00:28:41;;;;;;;30.47;10.97;;;9.00;99.90;;;;;;5093664;28;20389;-75
2022/12/25 00:31:09;;;;;;;26.50;10.75;;;9.00;99.90;;;;;;5093573;28;20382;-75
2022/12/25 00:33:36;;;;;;;31.98;10.60;;;9.10;99.90;;;;;;5091684;28;20401;-76
2022/12/25 00:36:05;;;;;;;32.53;10.70;;;9.00;99.90;;;;;;5093326;28;20393;-77
2022/12/25 00:38:31;;;;;;;30.70;10.07;;;9.10;99.90;;;;;;5093419;28;20402;-75
2022/12/25 00:40:57;;;;;;;29.38;9.20;;;9.10;99.90;;;;;;5092307;28;20439;-77
2022/12/25 00:43:23;;;;;;;27.50;9.10;;;9.20;99.90;;;;;;5092180;28;20860;-76
2022/12/25 00:46:02;;;;;;;26.02;9.50;;;9.20;99.90;;;;;;5092239;28;20428;-74
2022/12/25 00:48:29;;;;;;;35.63;9.55;;;9.20;99.90;;;;;;5092311;28;20439;-77
2022/12/25 00:50:56;;;;;;;28.65;9.43;;;9.20;99.90;;;;;;5091426;28;20378;-75
2022/12/25 00:53:22;;;;;;;26.83;8.70;;;9.20;99.90;;;;;;5092974;28;20470;-75
2022/12/25 00:55:53;;;;;;;26.67;9.38;;;9.20;99.90;;;;;;5092140;28;20401;-74
2022/12/25 00:58:19;;;;;;;28.15;8.98;;;9.20;99.90;;;;;;5092138;28;20406;-76
2022/12/25 01:00:45;;;;;;;25.15;8.90;;;9.30;99.90;;;;;;5092721;28;20382;-74
2022/12/25 01:03:10;;;;;;;27.45;8.60;;;9.30;99.90;;;;;;5093797;28;20386;-75
2022/12/25 01:05:36;;;;;;;26.80;8.30;;;9.30;99.90;;;;;;5092872;28;20379;-75
2022/12/25 01:08:02;;;;;;;24.73;8.95;;;9.30;99.90;;;;;;5092990;28;20746;-75
2022/12/25 01:10:27;;;;;;;25.60;7.97;;;9.30;99.90;;;;;;5095481;28;20378;-75
2022/12/25 01:12:53;;;;;;;24.75;7.90;;;9.40;99.90;;;;;;5092996;28;20386;-75
2022/12/25 01:15:19;;;;;;;25.43;8.90;;;9.40;99.90;;;;;;5092787;28;20410;-75
2022/12/25 01:17:44;;;;;;;21.05;7.60;;;9.40;99.90;;;;;;5092126;28;20413;-75
2022/12/25 01:20:12;;;;;;;26.92;7.88;;;9.40;99.90;;;;;;5093001;28;20933;-75
2022/12/25 01:22:38;;;;;;;26.55;7.82;;;9.40;99.90;;;;;;5090114;28;20379;-75
2022/12/25 01:25:04;;;;;;;16.20;6.80;;;9.40;99.90;;;;;;5092029;28;20389;-76
2022/12/25 01:27:31;;;;;;;21.88;7.40;;;9.40;99.90;;;;;;5091427;28;20439;-76
2022/12/25 01:29:56;;;;;;;21.70;7.70;;;9.40;99.90;;;;;;5093878;28;20422;-75
2022/12/25 01:32:22;;;;;;;20.10;7.00;;;9.40;99.90;;;;;;5090758;28;20390;-76
2022/12/25 01:34:47;;;;;;;20.97;7.77;;;9.40;99.90;;;;;;5094972;28;20487;-74
2022/12/25 01:37:13;;;;;;;19.60;7.50;;;9.50;99.90;;;;;;5093636;28;20413;-74
2022/12/25 01:39:39;;;;;;;21.37;7.63;;;9.50;99.90;;;;;;5095245;28;20378;-75
2022/12/25 01:42:04;;;;;;;15.57;6.90;;;9.50;99.90;;;;;;5092646;28;20382;-75
2022/12/25 01:44:36;;;;;;;24.17;6.60;;;9.50;99.90;;;;;;5092569;28;20430;-75
2022/12/25 01:47:03;;;;;;;19.25;6.45;;;9.50;99.80;;;;;;5092011;28;20909;-74
2022/12/25 01:49:33;;;;;;;21.83;6.68;;;9.60;99.90;;;;;;5091976;28;20814;-74
2022/12/25 01:52:09;;;;;;;19.25;6.63;;;9.50;99.90;;;;;;5091786;28;20382;-76
2022/12/25 01:54:42;;;;;;;23.58;7.35;;;9.60;99.90;;;;;;5092763;28;20390;-76
2022/12/25 01:57:14;;;;;;;20.92;6.05;;;9.60;99.90;;;;;;5095396;28;20393;-75
2022/12/25 01:59:40;;;;;;;17.38;6.32;;;9.60;99.90;;;;;;5091266;28;20788;-75
2022/12/25 02:02:07;;;;;;;19.47;6.23;;;9.60;99.90;;;;;;5090187;28;20378;-75
2022/12/25 02:04:46;;;;;;;20.10;6.35;;;9.60;99.90;;;;;;5090876;28;20400;-74
2022/12/25 02:07:16;;;;;;;14.75;5.85;;;9.70;99.90;;;;;;5090749;28;20382;-75
2022/12/25 02:09:41;;;;;;;18.77;5.93;;;9.70;99.90;;;;;;5090535;28;20392;-74
2022/12/25 02:12:10;;;;;;;16.17;6.45;;;9.70;99.30;;;;;;5090712;28;20867;-75
2022/12/25 02:14:36;;;;;;;15.57;6.10;;;9.70;99.80;;;;;;5091342;28;20492;-75
2022/12/25 02:17:21;;;;;;;18.20;6.05;;;9.70;99.90;;;;;;5092540;28;20398;-74
2022/12/25 02:20:02;;;;;;;18.93;6.33;;;9.70;99.90;;;;;;5091645;28;20374;-76
2022/12/25 02:22:55;;;;;;;14.68;5.97;;;9.80;99.90;;;;;;5091783;28;20408;-74
2022/12/25 02:25:58;;;;;;;19.50;6.30;;;9.80;99.90;;;;;;5091501;28;20423;-75
2022/12/25 02:28:44;;;;;;;19.10;6.30;;;9.80;99.90;;;;;;5092550;28;20381;-76
2022/12/25 02:31:17;;;;;;;18.13;6.37;;;9.90;99.10;;;;;;5093820;28;20393;-75
2022/12/25 02:34:03;;;;;;;17.40;5.45;;;9.90;98.70;;;;;;5095122;28;20374;-75
2022/12/25 02:36:46;;;;;;;16.80;5.93;;;9.90;98.10;;;;;;5099247;28;20378;-75
2022/12/25 03:06:41;;;;;;;15.10;5.77;;;9.90;98.90;;;;;;5098415;28;20550;-75
2022/12/25 03:07:24;;;;;;;16.25;6.57;;;10.00;98.50;;;;;;5093033;28;20869;-73
2022/12/25 03:13:02;;;;;;;16.38;6.30;;;10.10;96.80;;;;;;5092667;28;20396;-73
2022/12/25 03:18:17;;;;;;;19.30;6.60;;;10.00;98.40;;;;;;5079291;28;20914;-73
2022/12/25 03:29:02;;;;;;;13.68;6.10;;;9.90;99.90;;;;;;5091976;28;20401;-75
2022/12/25 03:31:57;;;;;;;12.10;5.32;;;9.90;99.90;;;;;;5090915;28;20417;-75
2022/12/25 04:36:13;;;;;;;14.68;5.43;;;10.10;99.90;;;;;;5073877;28;20379;-72
2022/12/25 04:38:40;;;;;;;16.92;4.88;;;10.10;99.90;;;;;;5077573;28;20399;-72
2022/12/25 04:41:06;;;;;;;18.48;5.50;;;10.10;99.90;;;;;;5077322;28;20382;-73
2022/12/25 04:43:32;;;;;;;16.33;6.05;;;10.20;99.10;;;;;;5075952;28;20388;-74
2022/12/25 04:46:00;;;;;;;15.27;5.00;;;10.10;99.60;;;;;;5077427;28;20483;-74
2022/12/25 04:48:26;;;;;;;13.10;5.50;;;10.20;98.80;;;;;;5077744;28;20387;-73
2022/12/25 04:50:52;;;;;;;17.60;7.07;;;10.30;98.70;;;;;;5076448;28;20380;-72
2022/12/25 04:53:18;;;;;;;16.00;5.65;;;10.20;98.70;;;;;;5071771;28;20402;-72
2022/12/25 04:55:44;;;;;;;16.02;5.20;;;10.20;98.90;;;;;;5071464;28;20399;-73
2022/12/25 04:58:10;;;;;;;17.57;5.40;;;10.20;98.90;;;;;;5071424;28;20399;-73
2022/12/25 05:00:36;;;;;;;14.80;5.70;;;10.20;98.70;;;;;;5070367;28;20394;-73
2022/12/25 05:03:01;;;;;;;14.00;5.72;;;10.20;99.00;;;;;;5071053;28;20475;-73
2022/12/25 05:05:27;;;;;;;14.03;5.03;;;10.20;99.30;;;;;;5070555;28;20376;-73
2022/12/25 05:07:53;;;;;;;21.13;6.70;;;10.30;99.40;;;;;;5070870;28;20744;-72
2022/12/25 05:10:19;;;;;;;13.35;5.35;;;10.20;99.20;;;;;;5070961;28;20384;-72
2022/12/25 05:12:44;;;;;;;15.93;5.00;;;10.30;99.20;;;;;;5070479;28;20387;-73
2022/12/25 05:15:10;;;;;;;14.18;5.78;;;10.20;99.90;;;;;;5071101;28;20398;-72
2022/12/25 05:17:36;;;;;;;14.68;5.45;;;10.20;99.90;;;;;;5070859;28;20772;-73
2022/12/25 05:20:05;;;;;;;20.17;5.50;;;10.10;99.90;;;;;;5071421;28;20387;-73
2022/12/25 05:22:31;;;;;;;13.40;4.67;;;10.10;99.90;;;;;;5070127;28;20456;-72
2022/12/25 05:24:56;;;;;;;18.10;5.57;;;10.10;99.90;;;;;;5071211;28;20376;-73
2022/12/25 05:27:22;;;;;;;18.23;5.60;;;10.00;99.90;;;;;;5070603;28;20858;-72
2022/12/25 05:29:47;;;;;;;15.70;5.27;;;10.10;99.90;;;;;;5070772;28;20423;-73
2022/12/25 05:32:13;;;;;;;12.20;4.93;;;9.90;99.90;;;;;;5069729;28;20398;-72
2022/12/25 05:34:39;;;;;;;16.90;5.50;;;9.90;99.90;;;;;;5071117;28;20438;-74
2022/12/25 05:37:04;;;;;;;13.95;5.78;;;9.80;99.90;;;;;;5071391;28;20407;-72
2022/12/25 05:39:30;;;;;;;15.65;5.43;;;9.90;99.90;;;;;;5071287;28;20384;-72
2022/12/25 05:41:55;;;;;;;15.25;5.50;;;9.90;99.90;;;;;;5070094;28;20383;-73
2022/12/25 05:44:21;;;;;;;15.27;5.70;;;9.80;99.90;;;;;;5070134;28;20391;-74
2022/12/25 05:46:46;;;;;;;14.80;5.50;;;9.70;99.90;;;;;;5070216;28;20441;-73
2022/12/25 05:49:12;;;;;;;18.60;5.70;;;9.70;99.90;;;;;;5070239;28;20402;-73
2022/12/25 05:51:38;;;;;;;14.73;5.30;;;9.60;99.90;;;;;;5069563;28;20480;-73
2022/12/25 05:54:03;;;;;;;13.03;5.47;;;9.50;99.90;;;;;;5069910;28;20380;-72
2022/12/25 05:56:29;;;;;;;13.27;5.47;;;9.30;99.90;;;;;;5069724;28;20445;-73
2022/12/25 05:58:54;;;;;;;14.80;5.57;;;9.30;99.90;;;;;;5069942;28;20421;-73
2022/12/25 06:01:25;;;;;;;18.98;5.53;;;9.20;99.90;;;;;;5069301;28;20418;-73
2022/12/25 06:03:50;;;;;;;16.77;5.37;;;9.20;99.90;;;;;;5072276;28;20824;-73
2022/12/25 06:06:16;;;;;;;14.73;5.90;;;9.10;99.90;;;;;;5073525;28;20415;-73
2022/12/25 06:08:41;;;;;;;18.57;6.17;;;9.10;99.90;;;;;;5073703;28;20391;-73
2022/12/25 06:11:08;;;;;;;18.67;6.90;;;9.10;99.90;;;;;;5073039;28;20445;-73
2022/12/25 06:13:34;;;;;;;14.65;5.38;;;9.20;99.90;;;;;;5073384;28;21156;-73
2022/12/25 06:16:08;;;;;;;14.00;5.30;;;9.20;99.90;;;;;;5073585;28;20482;-73
2022/12/25 06:18:39;;;;;;;15.90;6.00;;;9.20;99.90;;;;;;5073592;28;20465;-73
2022/12/25 06:21:08;;;;;;;23.70;5.60;;;9.10;99.90;;;;;;5073111;28;20375;-73
2022/12/25 06:23:35;;;;;;;23.75;5.60;;;9.00;99.90;;;;;;5073837;28;20371;-74
2022/12/25 06:26:10;;;;;;;14.52;5.60;;;9.10;99.90;;;;;;5073490;28;20380;-74
2022/12/25 06:28:36;;;;;;;18.33;6.43;;;9.10;99.90;;;;;;5073313;28;20406;-72
2022/12/25 06:31:19;;;;;;;18.08;5.10;;;9.10;99.90;;;;;;5072806;28;20732;-74
2022/12/25 06:33:45;;;;;;;11.73;5.93;;;9.20;99.90;;;;;;5074199;28;20783;-74
2022/12/25 06:36:14;;;;;;;17.77;6.40;;;9.30;99.90;;;;;;5076435;28;20390;-74
2022/12/25 06:38:40;;;;;;;17.33;5.50;;;9.40;99.90;;;;;;5075524;28;20461;-74
2022/12/25 06:41:15;;;;;;;17.50;5.85;;;9.50;99.90;;;;;;5073008;28;20403;-73
2022/12/25 06:43:41;;;;;;;20.38;5.80;;;9.60;99.90;;;;;;5073534;28;20384;-74
2022/12/25 06:46:09;;;;;;;15.68;5.80;;;9.60;99.90;;;;;;5076599;28;20429;-74
2022/12/25 06:48:37;;;;;;;15.57;5.30;;;9.60;99.90;;;;;;5078388;28;20416;-74
2022/12/25 06:51:03;;;;;;;14.63;4.82;;;9.70;99.90;;;;;;5090220;28;20390;-74
2022/12/25 06:53:29;;;;;;;16.25;4.97;;;9.70;99.90;;;;;;5090978;28;20488;-74
2022/12/25 06:56:02;;;;;;;14.37;4.90;;;9.70;99.90;;;;;;5091912;28;20458;-74
2022/12/25 06:58:28;;;;;;;14.93;4.90;;;9.80;99.90;;;;;;5087280;28;20773;-74
2022/12/25 07:00:54;;;;;;;11.45;4.63;;;9.90;99.90;;;;;;5084487;28;20399;-74
2022/12/25 07:03:20;;;;;;;16.25;4.43;;;9.90;99.90;;;;;;5075108;28;20502;-73
2022/12/25 07:05:46;;;;;;;14.18;4.80;;;9.90;99.90;;;;;;5072887;28;20375;-74
2022/12/25 07:08:12;;;;;;;14.30;4.50;;;9.90;99.90;;;;;;5072719;28;20905;-74
2022/12/25 07:10:37;;;;;;;10.18;4.20;;;10.00;99.90;;;;;;5072883;28;20387;-73
2022/12/25 07:13:03;;;;;;;14.70;4.90;;;10.00;99.90;;;;;;5072127;28;20467;-72
2022/12/25 07:15:29;;;;;;;13.85;4.63;;;10.00;99.90;;;;;;5070796;28;20415;-73
2022/12/25 07:17:54;;;;;;;15.23;4.80;;;10.00;99.90;;;;;;5072279;28;20396;-74
2022/12/25 07:20:20;;;;;;;11.13;4.93;;;10.00;99.90;;;;;;5072458;28;20430;-73
2022/12/25 07:22:45;;;;;;;14.40;3.92;;;9.90;99.90;;;;;;5072027;28;20379;-74
2022/12/25 07:25:11;;;;;;;15.37;4.03;;;10.00;99.40;;;;;;5072649;28;20470;-73
2022/12/25 07:27:36;;;;;;;12.23;3.67;;;10.00;99.40;;;;;;5072111;28;20384;-74
2022/12/25 07:30:02;;;;;;;10.67;4.80;;;10.10;97.60;;;;;;5073318;28;20440;-74
2022/12/25 07:32:30;;;;;;;12.98;4.53;;;10.00;98.70;;;;;;5071875;28;20389;-74
2022/12/25 07:34:56;;;;;;;9.60;3.67;;;10.10;98.50;;;;;;5072150;28;20384;-71
2022/12/25 07:37:22;;;;;;;14.02;4.03;;;10.00;98.50;;;;;;5071805;28;20400;-73
2022/12/25 07:39:47;;;;;;;14.52;4.05;;;10.10;98.40;;;;;;5072134;28;20412;-73
2022/12/25 07:42:13;;;;;;;9.75;4.70;;;10.10;98.10;;;;;;5071231;28;20942;-71
2022/12/25 07:44:38;;;;;;;13.57;4.50;;;10.10;98.30;;;;;;5071780;28;20407;-72
2022/12/25 07:47:04;;;;;;;13.37;4.90;;;10.10;97.90;;;;;;5071828;28;20745;-73
2022/12/25 07:49:29;;;;;;;7.47;3.20;;;10.20;96.20;;;;;;5071930;28;20397;-74
2022/12/25 07:51:55;;;;;;;10.73;3.93;;;10.20;95.00;;;;;;5071457;28;20380;-74
2022/12/25 07:54:21;;;;;;;14.20;4.43;;;10.20;94.30;;;;;;5072174;28;20459;-74
2022/12/25 07:56:52;;;;;;;14.47;3.37;;;10.20;94.50;;;;;;5071872;28;20780;-73
2022/12/25 07:59:18;;;;;;;10.80;3.85;;;10.10;95.40;;;;;;5071932;28;20380;-73
2022/12/25 08:01:44;;;;;;;10.15;4.10;;;10.10;96.10;;;;;;5071005;28;20857;-73
2022/12/25 08:04:10;;;;;;;12.90;4.40;;;10.20;95.80;;;;;;5071690;28;20445;-73
2022/12/25 08:06:36;;;;;;;12.50;5.07;;;10.20;95.70;;;;;;5071765;28;20372;-75
2022/12/25 08:09:07;;;;;;;13.63;4.53;;;10.20;95.40;;;;;;5071656;28;20402;-74
2022/12/25 08:11:33;;;;;;;13.10;3.95;;;10.30;96.00;;;;;;5079660;28;20384;-72
2022/12/25 08:13:59;;;;;;;14.40;4.80;;;10.30;95.80;;;;;;5078914;28;20392;-72
2022/12/25 08:16:24;;;;;;;12.25;4.30;;;10.30;95.10;;;;;;5083695;28;20394;-74
2022/12/25 08:18:50;;;;;;;14.00;4.47;;;10.30;95.40;;;;;;5082478;28;20395;-74
2022/12/25 08:21:16;;;;;;;15.93;4.75;;;10.30;94.90;;;;;;5078715;28;20489;-75
2022/12/25 08:23:43;;;;;;;13.13;4.70;;;10.30;95.10;;;;;;5073740;28;20384;-74
2022/12/25 08:26:14;;;;;;;11.57;4.63;;;10.30;95.50;;;;;;5070493;28;20380;-73
2022/12/25 08:28:40;;;;;;;15.05;4.80;;;10.40;94.40;;;;;;5071288;28;20390;-74
2022/12/25 08:31:18;;;;;;;17.55;5.05;;;10.40;94.60;;;;;;5070530;28;20392;-75
2022/12/25 08:33:45;;;;;;;11.20;4.53;;;10.30;95.30;;;;;;5069595;28;20419;-75
2022/12/25 08:36:11;;;;;;;15.57;5.10;;;10.40;95.00;;;;;;5069633;28;20450;-74
2022/12/25 08:38:38;;;;;;;14.77;4.72;;;10.50;94.10;;;;;;5070803;28;20884;-74
2022/12/25 08:41:04;;;;;;;11.85;4.90;;;10.60;92.10;;;;;;5070226;28;20475;-75
2022/12/25 08:43:29;;;;;;;12.43;4.30;;;10.60;91.60;;;;;;5076929;28;20514;-73
2022/12/25 08:45:55;;;;;;;13.60;4.83;;;10.60;91.10;;;;;;5082271;28;20921;-73
2022/12/25 08:48:20;;;;;;;10.63;4.70;;;10.60;92.10;;;;;;5072048;28;20384;-72
2022/12/25 08:50:51;;;;;;;11.00;4.53;;;10.70;92.90;;;;;;5070787;28;20872;-74
2022/12/25 08:53:17;;;;;;;12.20;5.30;;;10.70;91.20;;;;;;5070832;28;20383;-76
2022/12/25 08:55:43;;;;;;;10.43;5.28;;;10.80;89.60;;;;;;5070958;28;20453;-74
2022/12/25 08:58:09;;;;;;;11.10;4.30;;;10.90;90.10;;;;;;5070235;28;20484;-74
2022/12/25 09:00:35;;;;;;;10.15;4.53;;;10.80;89.30;;;;;;5072420;28;20371;-73
2022/12/25 09:03:01;;;;;;;13.20;5.55;;;10.90;88.10;;;;;;5069788;28;20380;-73
2022/12/25 09:05:27;;;;;;;13.53;5.73;;;11.00;88.50;;;;;;5070910;28;20382;-74
2022/12/25 09:07:52;;;;;;;10.00;4.93;;;11.00;88.80;;;;;;5071010;28;20487;-73
2022/12/25 09:10:18;;;;;;;7.93;5.30;;;11.00;89.40;;;;;;5070885;28;20468;-73
2022/12/25 09:12:43;;;;;;;12.73;4.90;;;11.00;91.80;;;;;;5070516;28;20413;-72
2022/12/25 09:15:09;;;;;;;17.15;5.80;;;10.90;93.10;;;;;;5070891;28;20725;-73
2022/12/25 09:17:35;;;;;;;10.82;5.40;;;11.00;93.50;;;;;;5070303;28;20400;-74
2022/12/25 09:20:00;;;;;;;10.93;5.23;;;10.90;96.10;;;;;;5071250;28;20398;-73
2022/12/25 09:22:26;;;;;;;8.82;5.00;;;11.00;95.50;;;;;;5070220;28;20384;-73
2022/12/25 09:24:51;;;;;;;10.18;4.82;;;11.00;96.00;;;;;;5070796;28;20479;-74
2022/12/25 09:27:17;;;;;;;10.50;5.07;;;10.90;98.00;;;;;;5070843;28;20518;-74
2022/12/25 09:29:43;;;;;;;12.70;4.93;;;10.90;99.10;;;;;;5071219;28;20466;-74
2022/12/25 09:32:09;;;;;;;8.35;4.70;;;10.80;99.50;;;;;;5070824;28;20470;-74
2022/12/25 09:34:34;;;;;;;13.10;5.50;;;10.80;99.90;;;;;;5072954;28;20391;-73
2022/12/25 09:37:00;;;;;;;11.67;5.80;;;10.80;99.90;;;;;;5071983;28;20379;-72
2022/12/25 09:39:26;;;;;;;11.05;5.63;;;10.80;99.90;;;;;;5074826;28;20375;-73
2022/12/25 09:41:54;;;;;;;12.30;6.15;;;10.80;99.90;;;;;;5074687;28;20379;-73
2022/12/25 09:44:27;;;;;;;15.57;6.50;;;10.80;99.90;;;;;;5075508;28;20375;-73
2022/12/25 09:46:57;;;;;;;11.93;6.40;;;10.70;99.90;;;;;;5074618;28;20414;-75
2022/12/25 09:49:34;;;;;;;14.02;6.43;;;10.80;99.90;;;;;;5075584;28;20388;-73
2022/12/25 09:52:09;;;;;;;17.63;7.03;;;10.70;99.90;;;;;;5074733;28;20383;-73
2022/12/25 09:54:57;;;;;;;14.32;6.57;;;10.80;99.90;;;;;;5074634;28;20386;-74
2022/12/25 09:57:25;;;;;;;11.35;6.07;;;10.80;99.90;;;;;;5074463;28;20404;-74
2022/12/25 09:59:52;;;;;;;14.35;7.32;;;10.80;99.90;;;;;;5074478;28;20404;-74
2022/12/25 10:02:34;;;;;;;15.02;7.80;;;10.60;99.90;;;;;;5073751;28;20782;-74
2022/12/25 10:05:19;;;;;;;12.77;7.00;;;10.70;99.90;;;;;;5074525;28;20375;-73
2022/12/25 10:08:24;;;;;;;11.73;6.95;;;10.60;99.90;;;;;;5074675;28;20375;-74
2022/12/25 10:10:51;;;;;;;18.60;7.40;;;10.60;99.90;;;;;;5076036;28;20783;-75
2022/12/25 10:13:36;;;;;;;14.65;7.43;;;10.60;99.90;;;;;;5074540;28;20384;-73
2022/12/25 10:16:11;;;;;;;17.23;7.60;;;10.60;99.90;;;;;;5076737;28;20390;-74
2022/12/25 10:18:58;;;;;;;14.48;7.60;;;10.70;99.90;;;;;;5083260;28;20412;-73
2022/12/25 10:21:26;;;;;;;12.68;6.82;;;10.90;99.90;;;;;;5084109;28;20416;-75
2022/12/25 10:24:30;;;;;;;11.55;6.20;;;10.80;99.90;;;;;;5083006;28;20462;-74
2022/12/25 10:26:56;;;;;;;13.55;6.50;;;10.80;99.90;;;;;;5077770;28;20482;-74
2022/12/25 10:29:21;;;;;;;13.60;6.87;;;10.80;99.90;;;;;;5077168;28;20408;-74
2022/12/25 10:31:51;;;;;;;14.45;7.20;;;10.80;99.90;;;;;;5076284;28;20761;-74
2022/12/25 10:34:17;;;;;;;14.23;6.65;;;10.80;99.90;;;;;;5073795;28;20459;-74
2022/12/25 10:36:44;;;;;;;14.32;6.53;;;10.80;99.90;;;;;;5073193;28;20467;-74
2022/12/25 10:39:27;;;;;;;11.48;6.35;;;10.80;99.90;;;;;;5073173;28;20454;-74
2022/12/25 10:42:22;;;;;;;11.20;6.40;;;10.80;99.90;;;;;;5071320;28;20383;-74
2022/12/25 10:45:08;;;;;;;12.88;5.95;;;10.70;99.90;;;;;;5073333;28;20388;-74
2022/12/25 10:47:37;;;;;;;11.63;6.53;;;10.80;99.90;;;;;;5073283;28;20379;-73
2022/12/25 10:50:17;;;;;;;13.93;7.82;;;10.80;99.90;;;;;;5072333;28;20670;-73
2022/12/25 10:53:04;;;;;;;14.32;7.00;;;10.80;99.90;;;;;;5072471;28;20455;-74
2022/12/25 10:55:30;;;;;;;15.20;6.90;;;10.80;99.90;;;;;;5071377;28;20392;-74
2022/12/25 10:57:57;;;;;;;13.43;7.03;;;10.90;99.90;;;;;;5071521;28;20403;-74
2022/12/25 11:00:28;;;;;;;14.65;7.50;;;10.80;99.90;;;;;;5072513;28;20946;-73
2022/12/25 11:02:54;;;;;;;13.25;6.95;;;10.90;99.90;;;;;;5071933;28;20876;-73
2022/12/25 11:05:33;;;;;;;12.15;6.80;;;10.80;99.90;;;;;;5072510;28;20387;-73
2022/12/25 11:08:01;;;;;;;13.55;7.35;;;10.90;99.90;;;;;;5072418;28;20380;-73
2022/12/25 11:10:33;;;;;;;13.50;7.60;;;10.80;99.90;;;;;;5072651;28;20840;-73
2022/12/25 11:13:00;;;;;;;16.33;8.10;;;11.00;99.90;;;;;;5073450;28;20511;-73
2022/12/25 11:15:42;;;;;;;12.88;7.40;;;11.10;99.90;;;;;;5072287;28;20395;-73
2022/12/25 11:18:20;;;;;;;13.75;7.30;;;10.90;99.90;;;;;;5071303;28;20400;-73
2022/12/25 11:20:59;;;;;;;13.88;7.35;;;10.90;99.90;;;;;;5072257;28;20380;-73
2022/12/25 11:23:28;;;;;;;11.02;7.05;;;11.00;99.90;;;;;;5072522;28;20721;-73
2022/12/25 11:25:59;;;;;;;11.80;7.05;;;11.00;99.90;;;;;;5074501;28;20481;-73
2022/12/25 11:28:26;;;;;;;12.82;9.10;;;11.10;99.90;;;;;;5073201;28;20372;-74
2022/12/25 11:31:04;;;;;;;12.52;7.18;;;11.10;99.90;;;;;;5070856;28;20423;-73
2022/12/25 11:33:36;;;;;;;11.68;6.95;;;11.30;99.90;;;;;;5074746;28;20384;-75
2022/12/25 11:36:14;;;;;;;12.25;6.80;;;11.50;99.90;;;;;;5075409;28;20394;-73
2022/12/25 11:38:40;;;;;;;9.95;6.47;;;11.60;99.90;;;;;;5073267;28;20482;-73
2022/12/25 11:41:09;;;;;;;12.30;6.97;;;11.50;99.90;;;;;;5080276;28;20426;-74
2022/12/25 11:43:41;;;;;;;13.32;7.30;;;11.60;99.90;;;;;;5082294;28;20418;-74
2022/12/25 11:46:17;;;;;;;8.05;5.63;;;11.60;99.90;;;;;;5092095;28;20376;-74
2022/12/25 11:49:17;;;;;;;11.05;5.95;;;11.50;99.90;;;;;;5093892;28;20376;-74
2022/12/25 11:51:46;;;;;;;10.48;6.25;;;11.50;99.90;;;;;;5080462;28;20418;-74
2022/12/25 11:54:28;;;;;;;8.30;6.15;;;11.30;99.90;;;;;;5085622;28;20415;-73
2022/12/25 11:56:59;;;;;;;7.80;6.00;;;11.20;99.90;;;;;;5072158;28;21536;-73
2022/12/25 11:59:46;;;;;;;11.10;6.20;;;11.20;99.90;;;;;;5074325;28;20384;-73
2022/12/25 12:02:24;;;;;;;10.77;6.85;;;11.10;99.90;;;;;;5070782;28;20387;-74
2022/12/25 12:05:01;;;;;;;10.93;6.10;;;11.10;99.90;;;;;;5071852;28;20396;-74
2022/12/25 12:07:29;;;;;;;7.82;5.90;;;11.20;99.90;;;;;;5072229;28;20384;-74
2022/12/25 12:10:18;;;;;;;10.18;6.35;;;11.20;99.90;;;;;;5072060;28;20402;-74
2022/12/25 12:13:04;;;;;;;10.27;5.77;;;11.00;99.90;;;;;;5071275;28;20451;-74
2022/12/25 12:15:41;;;;;;;12.70;5.90;;;11.00;99.90;;;;;;5072397;28;20409;-74
2022/12/25 12:18:25;;;;;;;13.10;5.70;;;11.00;99.90;;;;;;5071647;28;20395;-74
2022/12/25 12:21:09;;;;;;;11.32;6.40;;;11.00;99.90;;;;;;5071908;28;20384;-73
2022/12/25 12:23:51;;;;;;;14.73;6.70;;;11.10;99.90;;;;;;5071628;28;20380;-73
2022/12/25 12:26:39;;;;;;;12.27;6.70;;;11.00;99.90;;;;;;5071540;28;20383;-73
2022/12/25 12:29:17;;;;;;;13.43;6.85;;;11.10;99.90;;;;;;5072077;28;20434;-73
2022/12/25 12:31:46;;;;;;;16.95;7.22;;;11.00;99.90;;;;;;5070875;28;20794;-74
2022/12/25 12:34:44;;;;;;;13.00;6.63;;;11.00;99.90;;;;;;5069635;28;20408;-75
2022/12/25 12:37:19;;;;;;;12.43;6.93;;;10.90;99.90;;;;;;5069960;28;20539;-74
2022/12/25 12:39:49;;;;;;;9.60;6.10;;;11.00;99.90;;;;;;5071420;28;20384;-75
2022/12/25 12:42:19;;;;;;;9.75;6.75;;;11.00;99.90;;;;;;5070119;28;20437;-74
2022/12/25 12:44:47;;;;;;;11.52;6.35;;;11.00;99.90;;;;;;5071375;28;20888;-73
2022/12/25 12:47:29;;;;;;;11.20;6.90;;;11.00;99.90;;;;;;5070921;28;20392;-73
2022/12/25 12:49:59;;;;;;;13.85;6.85;;;11.00;99.90;;;;;;5070851;28;20380;-72
2022/12/25 12:52:30;;;;;;;10.60;6.90;;;11.10;99.90;;;;;;5070047;28;20857;-73
2022/12/25 12:55:01;;;;;;;12.00;6.20;;;11.00;99.90;;;;;;5070460;28;20385;-73
2022/12/25 12:57:31;;;;;;;9.88;6.95;;;11.10;99.90;;;;;;5071208;28;20457;-73
2022/12/25 12:59:58;;;;;;;12.30;6.50;;;11.10;99.90;;;;;;5070656;28;20380;-73
2022/12/25 13:02:50;;;;;;;14.23;7.10;;;11.10;99.90;;;;;;5068712;28;20392;-73
2022/12/25 13:05:38;;;;;;;14.23;7.10;;;11.10;99.90;;;;;;5070561;28;20376;-73
2022/12/25 13:08:29;;;;;;;14.80;7.50;;;11.10;99.90;;;;;;5070948;28;20380;-74
2022/12/25 13:11:16;;;;;;;14.68;6.90;;;11.10;99.90;;;;;;5067902;28;20388;-72
2022/12/25 13:13:44;;;;;;;11.77;7.00;;;11.10;99.90;;;;;;5070706;28;20387;-73
2022/12/25 13:16:23;;;;;;;14.90;7.22;;;11.10;99.90;;;;;;5070307;28;20380;-72
2022/12/25 13:18:52;;;;;;;10.82;7.50;;;11.10;99.90;;;;;;5077476;28;20414;-71
2022/12/25 13:21:22;;;;;;;11.20;7.00;;;11.10;99.90;;;;;;5077475;28;20888;-73
2022/12/25 13:23:54;;;;;;;10.75;7.15;;;11.10;99.90;;;;;;5070342;28;20841;-72
2022/12/25 13:26:19;;;;;;;15.05;7.88;;;11.10;99.90;;;;;;5076404;28;20385;-71
2022/12/25 13:28:46;;;;;;;14.07;8.45;;;11.10;99.90;;;;;;5090891;28;20799;-73
2022/12/25 13:31:19;;;;;;;12.30;7.27;;;11.10;99.90;;;;;;5090590;28;21217;-73
2022/12/25 13:34:09;;;;;;;16.27;7.95;;;11.20;99.90;;;;;;5092766;28;20389;-76
2022/12/25 13:36:37;;;;;;;15.60;9.20;;;11.20;99.90;;;;;;5095204;28;20406;-72
2022/12/25 13:39:07;;;;;;;13.60;8.18;;;11.30;99.90;;;;;;5094920;28;20393;-72
2022/12/25 13:42:04;;;;;;;15.55;8.15;;;11.20;99.90;;;;;;5099912;28;20461;-73
2022/12/25 13:44:36;;;;;;;16.20;8.88;;;11.20;99.90;;;;;;5095532;28;20382;-73
2022/12/25 13:47:31;;;;;;;14.55;7.72;;;11.30;99.90;;;;;;5090661;28;20402;-73
2022/12/25 13:49:59;;;;;;;11.80;8.43;;;11.30;99.90;;;;;;5090928;28;20375;-74
2022/12/25 13:52:32;;;;;;;16.73;8.80;;;11.20;99.90;;;;;;5090277;28;20392;-74
2022/12/25 13:55:20;;;;;;;16.73;8.67;;;11.30;99.90;;;;;;5091750;28;20374;-73
2022/12/25 13:57:58;;;;;;;15.48;8.95;;;11.20;99.90;;;;;;5094120;28;20783;-74
2022/12/25 14:00:38;;;;;;;13.25;8.45;;;11.30;99.90;;;;;;5094048;28;20420;-73
2022/12/25 14:03:06;;;;;;;14.80;9.77;;;11.30;99.90;;;;;;5092675;28;20401;-76
2022/12/25 14:05:38;;;;;;;14.73;8.73;;;11.30;99.90;;;;;;5093250;28;20388;-75
2022/12/25 14:08:19;;;;;;;17.50;10.88;;;11.40;99.90;;;;;;5092994;28;20390;-74
2022/12/25 14:10:49;;;;;;;15.43;10.07;;;11.40;99.90;;;;;;5094054;28;20389;-74
2022/12/25 14:13:16;;;;;;;18.90;10.60;;;11.40;99.90;;;;;;5094166;28;20389;-74
2022/12/25 14:15:45;;;;;;;22.80;10.25;;;11.40;99.90;;;;;;5092362;28;20469;-74
2022/12/25 14:18:15;;;;;;;17.75;10.82;;;11.40;99.90;;;;;;5091934;28;20489;-74
2022/12/25 14:20:58;;;;;;;15.15;10.30;;;11.40;99.90;;;;;;5090224;28;20435;-73
2022/12/25 14:23:25;;;;;;;19.80;10.90;;;11.40;99.90;;;;;;5090515;28;20366;-73
2022/12/25 14:25:51;;;;;;;19.33;10.77;;;11.40;99.90;;;;;;5094058;28;20378;-74
2022/12/25 14:28:30;;;;;;;17.95;11.07;;;11.40;99.90;;;;;;5094088;28;20406;-73
2022/12/25 14:30:57;;;;;;;17.95;11.52;;;11.50;99.90;;;;;;5092817;28;20382;-73
2022/12/25 14:33:27;;;;;;;17.27;11.18;;;11.50;99.90;;;;;;5092701;28;20382;-74
2022/12/25 14:35:53;;;;;;;19.70;10.80;;;11.50;99.90;;;;;;5094884;28;20410;-73
2022/12/25 14:38:35;;;;;;;18.13;10.50;;;11.50;99.90;;;;;;5094617;28;20410;-73
2022/12/25 14:41:04;;;;;;;18.33;10.85;;;11.50;99.90;;;;;;5091458;28;20483;-74